sensor_id;sensor_type;location;lat;lon;timestamp;temperature;humidity
21199;DHT22;10757;51.038;3.712;2023-03-01T00:01:18;3.20;99.90
21199;DHT22;10757;51.038;3.712;2023-03-01T00:03:44;3.20;99.90
21199;DHT22;10757;51.038;3.712;2023-03-01T00:06:10;3.20;99.90
21199;DHT22;10757;51.038;3.712;2023-03-01T00:08:36;3.30;99.90
21199;DHT22;10757;51.038;3.712;2023-03-01T00:11:16;3.40;99.90
21199;DHT22;10757;51.038;3.712;2023-03-01T00:13:43;3.30;99.90
21199;DHT22;10757;51.038;3.712;2023-03-01T00:16:17;3.20;99.90
21199;DHT22;10757;51.038;3.712;2023-03-01T00:18:43;3.10;99.90
21199;DHT22;10757;51.038;3.712;2023-03-01T00:21:09;3.10;99.90
21199;DHT22;10757;51.038;3.712;2023-03-01T00:23:35;3.20;99.90
21199;DHT22;10757;51.038;3.712;2023-03-01T00:26:02;3.20;99.90
21199;DHT22;10757;51.038;3.712;2023-03-01T00:28:28;3.20;99.90
21199;DHT22;10757;51.038;3.712;2023-03-01T00:30:53;3.20;99.90
21199;DHT22;10757;51.038;3.712;2023-03-01T00:33:19;3.20;99.90
21199;DHT22;10757;51.038;3.712;2023-03-01T00:35:44;3.10;99.90
21199;DHT22;10757;51.038;3.712;2023-03-01T00:38:10;3.20;99.90
21199;DHT22;10757;51.038;3.712;2023-03-01T00:40:36;3.40;99.90
21199;DHT22;10757;51.038;3.712;2023-03-01T00:43:02;3.40;99.90
21199;DHT22;10757;51.038;3.712;2023-03-01T00:45:28;3.30;99.90
21199;DHT22;10757;51.038;3.712;2023-03-01T00:47:56;3.10;99.90
21199;DHT22;10757;51.038;3.712;2023-03-01T00:50:23;3.10;99.90
21199;DHT22;10757;51.038;3.712;2023-03-01T00:52:53;3.20;99.90
21199;DHT22;10757;51.038;3.712;2023-03-01T00:55:19;3.20;99.90
21199;DHT22;10757;51.038;3.712;2023-03-01T00:57:44;3.20;99.90
21199;DHT22;10757;51.038;3.712;2023-03-01T01:00:10;3.40;99.90
21199;DHT22;10757;51.038;3.712;2023-03-01T01:02:37;3.30;99.90
21199;DHT22;10757;51.038;3.712;2023-03-01T01:05:03;3.10;99.90
21199;DHT22;10757;51.038;3.712;2023-03-01T01:07:28;3.00;99.90
21199;DHT22;10757;51.038;3.712;2023-03-01T01:09:54;3.00;99.90
21199;DHT22;10757;51.038;3.712;2023-03-01T01:12:20;3.20;99.90
21199;DHT22;10757;51.038;3.712;2023-03-01T01:14:45;3.10;99.90
21199;DHT22;10757;51.038;3.712;2023-03-01T01:17:11;3.10;99.90
21199;DHT22;10757;51.038;3.712;2023-03-01T01:19:37;3.10;99.90
21199;DHT22;10757;51.038;3.712;2023-03-01T01:22:03;3.10;99.90
21199;DHT22;10757;51.038;3.712;2023-03-01T01:24:29;2.90;99.90
21199;DHT22;10757;51.038;3.712;2023-03-01T01:26:55;2.90;99.90
21199;DHT22;10757;51.038;3.712;2023-03-01T01:29:21;2.90;99.90
21199;DHT22;10757;51.038;3.712;2023-03-01T01:31:47;3.00;99.90
21199;DHT22;10757;51.038;3.712;2023-03-01T01:34:15;3.10;99.90
21199;DHT22;10757;51.038;3.712;2023-03-01T01:36:42;2.90;99.90
21199;DHT22;10757;51.038;3.712;2023-03-01T01:39:08;3.20;99.90
21199;DHT22;10757;51.038;3.712;2023-03-01T01:41:40;3.10;99.90
21199;DHT22;10757;51.038;3.712;2023-03-01T01:44:25;3.10;99.90
21199;DHT22;10757;51.038;3.712;2023-03-01T01:47:26;2.90;99.90
21199;DHT22;10757;51.038;3.712;2023-03-01T01:49:56;2.90;99.90
21199;DHT22;10757;51.038;3.712;2023-03-01T01:52:33;2.70;99.90
21199;DHT22;10757;51.038;3.712;2023-03-01T01:55:11;2.70;99.90
21199;DHT22;10757;51.038;3.712;2023-03-01T01:57:45;2.60;99.90
21199;DHT22;10757;51.038;3.712;2023-03-01T02:00:24;2.60;99.90
21199;DHT22;10757;51.038;3.712;2023-03-01T02:02:55;2.50;99.90
21199;DHT22;10757;51.038;3.712;2023-03-01T02:05:31;2.70;99.90
21199;DHT22;10757;51.038;3.712;2023-03-01T02:07:59;3.00;99.90
21199;DHT22;10757;51.038;3.712;2023-03-01T02:10:27;3.10;99.90
21199;DHT22;10757;51.038;3.712;2023-03-01T02:12:53;3.00;99.90
21199;DHT22;10757;51.038;3.712;2023-03-01T02:15:19;2.80;99.90
21199;DHT22;10757;51.038;3.712;2023-03-01T02:17:45;2.80;99.90
21199;DHT22;10757;51.038;3.712;2023-03-01T02:20:27;3.00;99.90
21199;DHT22;10757;51.038;3.712;2023-03-01T02:22:55;3.00;99.90
21199;DHT22;10757;51.038;3.712;2023-03-01T02:25:47;3.10;99.90
21199;DHT22;10757;51.038;3.712;2023-03-01T02:30:47;2.80;99.90
21199;DHT22;10757;51.038;3.712;2023-03-01T02:33:34;3.00;99.90
21199;DHT22;10757;51.038;3.712;2023-03-01T02:36:04;3.20;99.90
21199;DHT22;10757;51.038;3.712;2023-03-01T02:38:31;3.30;99.90
21199;DHT22;10757;51.038;3.712;2023-03-01T02:40:57;3.20;99.90
21199;DHT22;10757;51.038;3.712;2023-03-01T02:43:27;2.90;99.90
21199;DHT22;10757;51.038;3.712;2023-03-01T02:45:58;2.60;99.90
21199;DHT22;10757;51.038;3.712;2023-03-01T02:48:24;2.40;99.90
21199;DHT22;10757;51.038;3.712;2023-03-01T02:53:45;2.30;99.90
21199;DHT22;10757;51.038;3.712;2023-03-01T02:56:07;2.30;99.90
21199;DHT22;10757;51.038;3.712;2023-03-01T02:58:39;2.30;99.90
21199;DHT22;10757;51.038;3.712;2023-03-01T03:01:12;2.20;99.90
21199;DHT22;10757;51.038;3.712;2023-03-01T03:03:40;2.40;99.90
21199;DHT22;10757;51.038;3.712;2023-03-01T03:06:06;2.60;99.90
21199;DHT22;10757;51.038;3.712;2023-03-01T03:08:32;2.50;99.90
21199;DHT22;10757;51.038;3.712;2023-03-01T03:10:57;2.40;99.90
21199;DHT22;10757;51.038;3.712;2023-03-01T03:13:23;2.30;99.90
21199;DHT22;10757;51.038;3.712;2023-03-01T03:15:54;2.30;99.90
21199;DHT22;10757;51.038;3.712;2023-03-01T03:18:20;2.20;99.90
21199;DHT22;10757;51.038;3.712;2023-03-01T03:20:46;2.20;99.90
21199;DHT22;10757;51.038;3.712;2023-03-01T03:23:12;2.20;99.90
21199;DHT22;10757;51.038;3.712;2023-03-01T03:25:38;2.30;99.90
21199;DHT22;10757;51.038;3.712;2023-03-01T03:28:05;2.30;99.90
21199;DHT22;10757;51.038;3.712;2023-03-01T03:30:36;2.30;99.90
21199;DHT22;10757;51.038;3.712;2023-03-01T03:33:05;2.40;99.90
21199;DHT22;10757;51.038;3.712;2023-03-01T03:35:42;2.40;99.90
21199;DHT22;10757;51.038;3.712;2023-03-01T03:38:10;2.40;99.90
21199;DHT22;10757;51.038;3.712;2023-03-01T03:40:43;2.20;99.90
21199;DHT22;10757;51.038;3.712;2023-03-01T03:43:13;2.20;99.90
21199;DHT22;10757;51.038;3.712;2023-03-01T03:45:39;2.20;99.90
21199;DHT22;10757;51.038;3.712;2023-03-01T03:48:08;2.20;99.90
21199;DHT22;10757;51.038;3.712;2023-03-01T03:50:35;2.20;99.90
21199;DHT22;10757;51.038;3.712;2023-03-01T03:53:02;2.30;99.90
21199;DHT22;10757;51.038;3.712;2023-03-01T03:55:28;2.30;99.90
21199;DHT22;10757;51.038;3.712;2023-03-01T03:57:58;2.30;99.90
21199;DHT22;10757;51.038;3.712;2023-03-01T04:00:26;2.30;99.90
21199;DHT22;10757;51.038;3.712;2023-03-01T04:02:51;2.50;99.90
21199;DHT22;10757;51.038;3.712;2023-03-01T04:05:22;2.30;99.90
21199;DHT22;10757;51.038;3.712;2023-03-01T04:07:48;2.20;99.90
21199;DHT22;10757;51.038;3.712;2023-03-01T04:10:16;2.30;99.90
21199;DHT22;10757;51.038;3.712;2023-03-01T04:12:42;2.20;99.90
21199;DHT22;10757;51.038;3.712;2023-03-01T04:15:09;2.10;99.90
21199;DHT22;10757;51.038;3.712;2023-03-01T04:17:42;2.00;99.90
21199;DHT22;10757;51.038;3.712;2023-03-01T04:20:10;1.90;99.90
21199;DHT22;10757;51.038;3.712;2023-03-01T04:22:37;1.90;99.90
21199;DHT22;10757;51.038;3.712;2023-03-01T04:25:03;2.00;99.90
21199;DHT22;10757;51.038;3.712;2023-03-01T04:27:35;2.10;99.90
21199;DHT22;10757;51.038;3.712;2023-03-01T04:30:02;2.00;99.90
21199;DHT22;10757;51.038;3.712;2023-03-01T04:32:28;2.00;99.90
21199;DHT22;10757;51.038;3.712;2023-03-01T04:34:54;1.90;99.90
21199;DHT22;10757;51.038;3.712;2023-03-01T04:37:19;1.80;99.90
21199;DHT22;10757;51.038;3.712;2023-03-01T04:39:45;1.80;99.90
21199;DHT22;10757;51.038;3.712;2023-03-01T04:42:11;1.70;99.90
21199;DHT22;10757;51.038;3.712;2023-03-01T04:44:37;1.80;99.90
21199;DHT22;10757;51.038;3.712;2023-03-01T04:47:03;1.80;99.90
21199;DHT22;10757;51.038;3.712;2023-03-01T04:49:29;1.80;99.90
21199;DHT22;10757;51.038;3.712;2023-03-01T04:51:55;1.80;99.90
21199;DHT22;10757;51.038;3.712;2023-03-01T04:54:23;1.70;99.90
21199;DHT22;10757;51.038;3.712;2023-03-01T04:56:49;1.70;99.90
21199;DHT22;10757;51.038;3.712;2023-03-01T04:59:15;1.80;99.90
21199;DHT22;10757;51.038;3.712;2023-03-01T05:01:40;1.70;99.90
21199;DHT22;10757;51.038;3.712;2023-03-01T05:04:08;1.70;99.90
21199;DHT22;10757;51.038;3.712;2023-03-01T05:06:38;1.60;99.90
21199;DHT22;10757;51.038;3.712;2023-03-01T05:09:05;1.70;99.90
21199;DHT22;10757;51.038;3.712;2023-03-01T05:11:31;1.80;99.90
21199;DHT22;10757;51.038;3.712;2023-03-01T05:14:01;1.70;99.90
21199;DHT22;10757;51.038;3.712;2023-03-01T05:16:27;1.70;99.90
21199;DHT22;10757;51.038;3.712;2023-03-01T05:18:53;1.70;99.90
21199;DHT22;10757;51.038;3.712;2023-03-01T05:21:21;1.70;99.90
21199;DHT22;10757;51.038;3.712;2023-03-01T05:23:47;1.70;99.90
21199;DHT22;10757;51.038;3.712;2023-03-01T05:26:14;1.70;99.90
21199;DHT22;10757;51.038;3.712;2023-03-01T05:28:40;1.60;99.90
21199;DHT22;10757;51.038;3.712;2023-03-01T05:31:06;1.70;99.90
21199;DHT22;10757;51.038;3.712;2023-03-01T05:33:39;1.70;99.90
21199;DHT22;10757;51.038;3.712;2023-03-01T05:36:07;1.60;99.90
21199;DHT22;10757;51.038;3.712;2023-03-01T05:38:33;1.50;99.90
21199;DHT22;10757;51.038;3.712;2023-03-01T05:40:59;1.60;99.90
21199;DHT22;10757;51.038;3.712;2023-03-01T05:43:25;1.90;99.90
21199;DHT22;10757;51.038;3.712;2023-03-01T05:45:51;1.80;99.90
21199;DHT22;10757;51.038;3.712;2023-03-01T05:48:17;1.80;99.90
21199;DHT22;10757;51.038;3.712;2023-03-01T05:50:45;1.70;99.90
21199;DHT22;10757;51.038;3.712;2023-03-01T05:53:15;1.60;99.90
21199;DHT22;10757;51.038;3.712;2023-03-01T05:55:42;1.60;99.90
21199;DHT22;10757;51.038;3.712;2023-03-01T05:58:11;1.70;99.90
21199;DHT22;10757;51.038;3.712;2023-03-01T06:00:37;1.70;99.90
21199;DHT22;10757;51.038;3.712;2023-03-01T06:03:03;1.50;99.90
21199;DHT22;10757;51.038;3.712;2023-03-01T06:05:29;1.60;99.90
21199;DHT22;10757;51.038;3.712;2023-03-01T06:07:58;1.60;99.90
21199;DHT22;10757;51.038;3.712;2023-03-01T06:10:24;1.70;99.90
21199;DHT22;10757;51.038;3.712;2023-03-01T06:12:49;1.80;99.90
21199;DHT22;10757;51.038;3.712;2023-03-01T06:15:16;1.80;99.90
21199;DHT22;10757;51.038;3.712;2023-03-01T06:17:43;1.80;99.90
21199;DHT22;10757;51.038;3.712;2023-03-01T06:20:16;1.60;99.90
21199;DHT22;10757;51.038;3.712;2023-03-01T06:22:43;1.60;99.90
21199;DHT22;10757;51.038;3.712;2023-03-01T06:25:11;1.60;99.90
21199;DHT22;10757;51.038;3.712;2023-03-01T06:27:38;1.50;99.90
21199;DHT22;10757;51.038;3.712;2023-03-01T06:30:04;1.50;99.90
21199;DHT22;10757;51.038;3.712;2023-03-01T06:32:30;1.40;99.90
21199;DHT22;10757;51.038;3.712;2023-03-01T06:34:57;1.40;99.90
21199;DHT22;10757;51.038;3.712;2023-03-01T06:37:24;1.60;99.90
21199;DHT22;10757;51.038;3.712;2023-03-01T06:39:53;1.90;99.90
21199;DHT22;10757;51.038;3.712;2023-03-01T06:42:19;1.70;99.90
21199;DHT22;10757;51.038;3.712;2023-03-01T06:44:45;1.70;99.90
21199;DHT22;10757;51.038;3.712;2023-03-01T06:47:11;1.70;99.90
21199;DHT22;10757;51.038;3.712;2023-03-01T06:49:37;1.50;99.90
21199;DHT22;10757;51.038;3.712;2023-03-01T06:52:03;1.50;99.90
21199;DHT22;10757;51.038;3.712;2023-03-01T06:54:29;1.50;99.90
21199;DHT22;10757;51.038;3.712;2023-03-01T06:56:55;1.50;99.90
21199;DHT22;10757;51.038;3.712;2023-03-01T06:59:21;1.60;99.90
21199;DHT22;10757;51.038;3.712;2023-03-01T07:01:47;1.80;99.90
21199;DHT22;10757;51.038;3.712;2023-03-01T07:04:13;1.70;99.90
21199;DHT22;10757;51.038;3.712;2023-03-01T07:06:39;1.60;99.90
21199;DHT22;10757;51.038;3.712;2023-03-01T07:09:05;1.90;99.90
21199;DHT22;10757;51.038;3.712;2023-03-01T07:11:31;2.10;99.90
21199;DHT22;10757;51.038;3.712;2023-03-01T07:13:57;2.10;99.90
21199;DHT22;10757;51.038;3.712;2023-03-01T07:16:23;2.00;99.90
21199;DHT22;10757;51.038;3.712;2023-03-01T07:18:50;1.90;99.90
21199;DHT22;10757;51.038;3.712;2023-03-01T07:21:16;2.00;99.90
21199;DHT22;10757;51.038;3.712;2023-03-01T07:23:42;2.00;99.90
21199;DHT22;10757;51.038;3.712;2023-03-01T07:26:08;2.10;99.90
21199;DHT22;10757;51.038;3.712;2023-03-01T07:28:34;2.20;99.90
21199;DHT22;10757;51.038;3.712;2023-03-01T07:31:06;2.10;99.90
21199;DHT22;10757;51.038;3.712;2023-03-01T07:33:32;2.10;99.90
21199;DHT22;10757;51.038;3.712;2023-03-01T07:35:59;2.20;99.90
21199;DHT22;10757;51.038;3.712;2023-03-01T07:38:26;2.30;99.90
21199;DHT22;10757;51.038;3.712;2023-03-01T07:40:52;2.80;99.90
21199;DHT22;10757;51.038;3.712;2023-03-01T07:43:19;3.00;99.90
21199;DHT22;10757;51.038;3.712;2023-03-01T07:45:46;2.80;99.90
21199;DHT22;10757;51.038;3.712;2023-03-01T07:48:12;2.70;99.90
21199;DHT22;10757;51.038;3.712;2023-03-01T07:50:37;2.90;99.90
21199;DHT22;10757;51.038;3.712;2023-03-01T07:53:03;3.00;99.90
21199;DHT22;10757;51.038;3.712;2023-03-01T07:55:30;3.10;99.90
21199;DHT22;10757;51.038;3.712;2023-03-01T07:57:56;3.20;99.90
21199;DHT22;10757;51.038;3.712;2023-03-01T08:00:22;3.10;99.90
21199;DHT22;10757;51.038;3.712;2023-03-01T08:02:48;3.20;99.90
21199;DHT22;10757;51.038;3.712;2023-03-01T08:05:14;3.20;99.90
21199;DHT22;10757;51.038;3.712;2023-03-01T08:07:40;3.20;99.90
21199;DHT22;10757;51.038;3.712;2023-03-01T08:10:06;3.30;99.90
21199;DHT22;10757;51.038;3.712;2023-03-01T08:12:32;3.40;99.90
21199;DHT22;10757;51.038;3.712;2023-03-01T08:14:58;3.30;99.90
21199;DHT22;10757;51.038;3.712;2023-03-01T08:17:23;3.30;99.90
21199;DHT22;10757;51.038;3.712;2023-03-01T08:19:49;3.30;99.90
21199;DHT22;10757;51.038;3.712;2023-03-01T08:22:16;3.30;99.90
21199;DHT22;10757;51.038;3.712;2023-03-01T08:24:44;3.30;99.90
21199;DHT22;10757;51.038;3.712;2023-03-01T08:27:09;3.50;99.90
21199;DHT22;10757;51.038;3.712;2023-03-01T08:29:38;3.60;99.90
21199;DHT22;10757;51.038;3.712;2023-03-01T08:32:04;3.70;99.90
21199;DHT22;10757;51.038;3.712;2023-03-01T08:34:36;3.60;99.90
21199;DHT22;10757;51.038;3.712;2023-03-01T08:37:02;3.70;99.90
21199;DHT22;10757;51.038;3.712;2023-03-01T08:39:29;3.80;99.90
21199;DHT22;10757;51.038;3.712;2023-03-01T08:41:55;3.90;99.90
21199;DHT22;10757;51.038;3.712;2023-03-01T08:44:21;4.00;99.90
21199;DHT22;10757;51.038;3.712;2023-03-01T08:46:47;3.90;99.90
21199;DHT22;10757;51.038;3.712;2023-03-01T08:49:18;4.00;99.90
21199;DHT22;10757;51.038;3.712;2023-03-01T08:51:45;4.10;99.90
21199;DHT22;10757;51.038;3.712;2023-03-01T08:54:16;4.10;99.90
21199;DHT22;10757;51.038;3.712;2023-03-01T08:56:43;4.20;99.90
21199;DHT22;10757;51.038;3.712;2023-03-01T08:59:10;4.10;99.90
21199;DHT22;10757;51.038;3.712;2023-03-01T09:01:36;4.10;99.90
21199;DHT22;10757;51.038;3.712;2023-03-01T09:04:03;4.10;99.90
21199;DHT22;10757;51.038;3.712;2023-03-01T09:06:33;4.10;99.90
21199;DHT22;10757;51.038;3.712;2023-03-01T09:09:00;4.20;99.90
21199;DHT22;10757;51.038;3.712;2023-03-01T09:11:26;4.20;99.90
21199;DHT22;10757;51.038;3.712;2023-03-01T09:13:54;4.30;99.90
21199;DHT22;10757;51.038;3.712;2023-03-01T09:16:22;4.40;99.90
21199;DHT22;10757;51.038;3.712;2023-03-01T09:18:54;4.40;99.90
21199;DHT22;10757;51.038;3.712;2023-03-01T09:21:23;4.30;99.90
21199;DHT22;10757;51.038;3.712;2023-03-01T09:23:50;4.50;99.90
21199;DHT22;10757;51.038;3.712;2023-03-01T09:26:20;4.60;99.90
21199;DHT22;10757;51.038;3.712;2023-03-01T09:28:48;4.50;99.90
21199;DHT22;10757;51.038;3.712;2023-03-01T09:31:18;4.50;99.90
21199;DHT22;10757;51.038;3.712;2023-03-01T09:33:46;4.60;99.90
21199;DHT22;10757;51.038;3.712;2023-03-01T09:36:15;4.50;99.90
21199;DHT22;10757;51.038;3.712;2023-03-01T09:38:41;4.50;99.90
21199;DHT22;10757;51.038;3.712;2023-03-01T09:47:21;5.10;99.90
21199;DHT22;10757;51.038;3.712;2023-03-01T09:53:07;5.40;99.90
21199;DHT22;10757;51.038;3.712;2023-03-01T09:55:51;5.60;99.90
21199;DHT22;10757;51.038;3.712;2023-03-01T10:01:26;5.60;99.90
21199;DHT22;10757;51.038;3.712;2023-03-01T10:06:39;5.60;99.90
21199;DHT22;10757;51.038;3.712;2023-03-01T10:09:14;5.60;99.90
21199;DHT22;10757;51.038;3.712;2023-03-01T10:11:52;5.70;99.90
21199;DHT22;10757;51.038;3.712;2023-03-01T10:14:41;5.80;99.90
21199;DHT22;10757;51.038;3.712;2023-03-01T10:21:01;5.80;99.90
21199;DHT22;10757;51.038;3.712;2023-03-01T10:22:55;5.90;99.90
21199;DHT22;10757;51.038;3.712;2023-03-01T10:25:36;5.80;99.90
21199;DHT22;10757;51.038;3.712;2023-03-01T10:28:28;5.70;99.90
21199;DHT22;10757;51.038;3.712;2023-03-01T10:30:57;5.60;99.90
21199;DHT22;10757;51.038;3.712;2023-03-01T10:33:33;5.70;99.90
21199;DHT22;10757;51.038;3.712;2023-03-01T10:36:01;5.50;99.90
21199;DHT22;10757;51.038;3.712;2023-03-01T10:38:31;5.50;99.90
21199;DHT22;10757;51.038;3.712;2023-03-01T10:41:13;5.80;99.90
21199;DHT22;10757;51.038;3.712;2023-03-01T10:43:46;6.00;99.90
21199;DHT22;10757;51.038;3.712;2023-03-01T10:46:35;6.20;99.90
21199;DHT22;10757;51.038;3.712;2023-03-01T10:49:17;6.30;99.90
21199;DHT22;10757;51.038;3.712;2023-03-01T10:51:48;6.50;99.90
21199;DHT22;10757;51.038;3.712;2023-03-01T10:56:51;6.50;99.90
21199;DHT22;10757;51.038;3.712;2023-03-01T10:59:32;6.70;99.90
21199;DHT22;10757;51.038;3.712;2023-03-01T11:05:19;6.60;99.90
21199;DHT22;10757;51.038;3.712;2023-03-01T11:10:21;6.80;99.90
21199;DHT22;10757;51.038;3.712;2023-03-01T11:12:47;6.90;99.90
21199;DHT22;10757;51.038;3.712;2023-03-01T11:15:22;7.00;99.90
21199;DHT22;10757;51.038;3.712;2023-03-01T11:17:50;6.80;99.90
21199;DHT22;10757;51.038;3.712;2023-03-01T11:20:46;6.80;99.90
21199;DHT22;10757;51.038;3.712;2023-03-01T11:23:13;6.80;99.90
21199;DHT22;10757;51.038;3.712;2023-03-01T11:25:43;6.90;99.90
21199;DHT22;10757;51.038;3.712;2023-03-01T11:28:17;6.90;99.90
21199;DHT22;10757;51.038;3.712;2023-03-01T11:31:11;6.90;99.90
21199;DHT22;10757;51.038;3.712;2023-03-01T11:33:58;6.90;99.90
21199;DHT22;10757;51.038;3.712;2023-03-01T11:41:51;7.70;99.90
21199;DHT22;10757;51.038;3.712;2023-03-01T11:44:23;7.90;99.90
21199;DHT22;10757;51.038;3.712;2023-03-01T11:50:02;7.90;99.90
21199;DHT22;10757;51.038;3.712;2023-03-01T11:55:23;7.80;99.90
21199;DHT22;10757;51.038;3.712;2023-03-01T12:08:50;7.10;99.90
21199;DHT22;10757;51.038;3.712;2023-03-01T12:44:25;7.80;99.90
21199;DHT22;10757;51.038;3.712;2023-03-01T12:49:36;8.20;99.90
21199;DHT22;10757;51.038;3.712;2023-03-01T12:52:11;8.10;99.90
21199;DHT22;10757;51.038;3.712;2023-03-01T12:54:39;8.00;99.90
21199;DHT22;10757;51.038;3.712;2023-03-01T12:59:43;8.20;99.90
21199;DHT22;10757;51.038;3.712;2023-03-01T13:02:24;8.20;99.90
21199;DHT22;10757;51.038;3.712;2023-03-01T13:05:29;8.20;99.90
21199;DHT22;10757;51.038;3.712;2023-03-01T13:11:00;8.20;99.90
21199;DHT22;10757;51.038;3.712;2023-03-01T13:13:28;8.40;99.90
21199;DHT22;10757;51.038;3.712;2023-03-01T13:15:55;8.60;99.90
21199;DHT22;10757;51.038;3.712;2023-03-01T13:20:50;8.40;99.90
21199;DHT22;10757;51.038;3.712;2023-03-01T13:26:00;7.70;99.90
21199;DHT22;10757;51.038;3.712;2023-03-01T13:28:48;7.60;99.90
21199;DHT22;10757;51.038;3.712;2023-03-01T13:33:50;7.80;99.90
21199;DHT22;10757;51.038;3.712;2023-03-01T13:39:00;7.90;99.90
21199;DHT22;10757;51.038;3.712;2023-03-01T13:41:55;8.00;99.90
21199;DHT22;10757;51.038;3.712;2023-03-01T13:47:08;8.10;99.90
21199;DHT22;10757;51.038;3.712;2023-03-01T13:49:47;8.20;99.90
21199;DHT22;10757;51.038;3.712;2023-03-01T13:57:43;8.30;99.90
21199;DHT22;10757;51.038;3.712;2023-03-01T14:03:11;8.50;99.90
21199;DHT22;10757;51.038;3.712;2023-03-01T14:05:41;8.50;99.90
21199;DHT22;10757;51.038;3.712;2023-03-01T14:08:23;8.30;99.90
21199;DHT22;10757;51.038;3.712;2023-03-01T14:10:58;8.50;99.90
21199;DHT22;10757;51.038;3.712;2023-03-01T14:13:41;8.70;99.90
21199;DHT22;10757;51.038;3.712;2023-03-01T14:16:32;8.70;99.90
21199;DHT22;10757;51.038;3.712;2023-03-01T14:21:34;8.50;99.90
21199;DHT22;10757;51.038;3.712;2023-03-01T14:24:03;8.50;99.90
21199;DHT22;10757;51.038;3.712;2023-03-01T14:26:37;8.40;99.90
21199;DHT22;10757;51.038;3.712;2023-03-01T14:29:03;8.30;99.90
21199;DHT22;10757;51.038;3.712;2023-03-01T14:31:39;8.10;99.90
21199;DHT22;10757;51.038;3.712;2023-03-01T14:34:05;8.30;99.90
21199;DHT22;10757;51.038;3.712;2023-03-01T14:36:33;8.60;99.90
21199;DHT22;10757;51.038;3.712;2023-03-01T14:38:59;8.50;99.90
21199;DHT22;10757;51.038;3.712;2023-03-01T14:41:34;8.40;99.90
21199;DHT22;10757;51.038;3.712;2023-03-01T14:44:02;8.40;99.90
21199;DHT22;10757;51.038;3.712;2023-03-01T14:46:38;8.40;99.90
21199;DHT22;10757;51.038;3.712;2023-03-01T14:49:19;8.40;99.90
21199;DHT22;10757;51.038;3.712;2023-03-01T14:52:07;8.50;99.90
21199;DHT22;10757;51.038;3.712;2023-03-01T14:54:51;8.70;99.90
21199;DHT22;10757;51.038;3.712;2023-03-01T14:57:22;8.60;99.90
21199;DHT22;10757;51.038;3.712;2023-03-01T15:00:02;8.50;99.90
21199;DHT22;10757;51.038;3.712;2023-03-01T15:02:38;8.60;99.90
21199;DHT22;10757;51.038;3.712;2023-03-01T15:05:08;8.40;99.90
21199;DHT22;10757;51.038;3.712;2023-03-01T15:07:44;8.40;99.90
21199;DHT22;10757;51.038;3.712;2023-03-01T15:10:28;8.60;99.90
21199;DHT22;10757;51.038;3.712;2023-03-01T15:12:54;8.50;99.90
21199;DHT22;10757;51.038;3.712;2023-03-01T15:15:41;8.20;99.90
21199;DHT22;10757;51.038;3.712;2023-03-01T15:18:27;8.10;99.90
21199;DHT22;10757;51.038;3.712;2023-03-01T15:20:54;8.30;99.90
21199;DHT22;10757;51.038;3.712;2023-03-01T15:23:26;8.30;99.90
21199;DHT22;10757;51.038;3.712;2023-03-01T15:25:53;8.10;99.90
21199;DHT22;10757;51.038;3.712;2023-03-01T15:28:32;8.20;99.90
21199;DHT22;10757;51.038;3.712;2023-03-01T15:31:23;8.40;99.90
21199;DHT22;10757;51.038;3.712;2023-03-01T15:33:48;8.40;99.90
21199;DHT22;10757;51.038;3.712;2023-03-01T15:36:45;8.30;99.90
21199;DHT22;10757;51.038;3.712;2023-03-01T15:47:34;8.00;99.90
21199;DHT22;10757;51.038;3.712;2023-03-01T15:50:01;8.20;99.90
21199;DHT22;10757;51.038;3.712;2023-03-01T15:55:03;8.20;99.90
21199;DHT22;10757;51.038;3.712;2023-03-01T15:57:34;8.30;99.90
21199;DHT22;10757;51.038;3.712;2023-03-01T16:00:00;8.30;99.90
21199;DHT22;10757;51.038;3.712;2023-03-01T16:02:31;8.20;99.90
21199;DHT22;10757;51.038;3.712;2023-03-01T16:04:57;8.10;99.90
21199;DHT22;10757;51.038;3.712;2023-03-01T16:07:23;8.10;99.90
21199;DHT22;10757;51.038;3.712;2023-03-01T16:09:49;8.20;99.90
21199;DHT22;10757;51.038;3.712;2023-03-01T16:12:16;8.10;99.90
21199;DHT22;10757;51.038;3.712;2023-03-01T16:14:45;8.00;99.90
21199;DHT22;10757;51.038;3.712;2023-03-01T16:17:11;8.10;99.90
21199;DHT22;10757;51.038;3.712;2023-03-01T16:19:40;8.20;99.90
21199;DHT22;10757;51.038;3.712;2023-03-01T16:22:09;8.20;99.90
21199;DHT22;10757;51.038;3.712;2023-03-01T16:24:35;8.30;99.90
21199;DHT22;10757;51.038;3.712;2023-03-01T16:27:02;8.40;99.90
21199;DHT22;10757;51.038;3.712;2023-03-01T16:29:27;8.40;99.90
21199;DHT22;10757;51.038;3.712;2023-03-01T16:31:55;8.30;99.90
21199;DHT22;10757;51.038;3.712;2023-03-01T16:34:20;8.20;99.90
21199;DHT22;10757;51.038;3.712;2023-03-01T16:36:47;8.20;99.90
21199;DHT22;10757;51.038;3.712;2023-03-01T16:39:13;7.90;99.90
21199;DHT22;10757;51.038;3.712;2023-03-01T16:41:39;7.80;99.90
21199;DHT22;10757;51.038;3.712;2023-03-01T16:44:05;7.80;99.90
21199;DHT22;10757;51.038;3.712;2023-03-01T16:46:34;7.70;99.90
21199;DHT22;10757;51.038;3.712;2023-03-01T16:49:00;7.70;99.90
21199;DHT22;10757;51.038;3.712;2023-03-01T16:51:26;8.00;99.90
21199;DHT22;10757;51.038;3.712;2023-03-01T16:53:52;8.10;99.90
21199;DHT22;10757;51.038;3.712;2023-03-01T16:56:19;7.90;99.90
21199;DHT22;10757;51.038;3.712;2023-03-01T16:58:44;7.70;99.90
21199;DHT22;10757;51.038;3.712;2023-03-01T17:01:16;7.80;99.90
21199;DHT22;10757;51.038;3.712;2023-03-01T17:03:43;7.70;99.90
21199;DHT22;10757;51.038;3.712;2023-03-01T17:06:11;7.50;99.90
21199;DHT22;10757;51.038;3.712;2023-03-01T17:08:38;7.50;99.90
21199;DHT22;10757;51.038;3.712;2023-03-01T17:11:07;7.40;99.90
21199;DHT22;10757;51.038;3.712;2023-03-01T17:13:34;7.30;99.90
21199;DHT22;10757;51.038;3.712;2023-03-01T17:16:02;7.30;99.90
21199;DHT22;10757;51.038;3.712;2023-03-01T17:18:28;7.20;99.90
21199;DHT22;10757;51.038;3.712;2023-03-01T17:20:54;7.20;99.90
21199;DHT22;10757;51.038;3.712;2023-03-01T17:23:20;7.20;99.90
21199;DHT22;10757;51.038;3.712;2023-03-01T17:25:46;7.10;99.90
21199;DHT22;10757;51.038;3.712;2023-03-01T17:28:13;7.00;99.90
21199;DHT22;10757;51.038;3.712;2023-03-01T17:30:45;7.00;99.90
21199;DHT22;10757;51.038;3.712;2023-03-01T17:33:13;6.90;99.90
21199;DHT22;10757;51.038;3.712;2023-03-01T17:35:38;6.90;99.90
21199;DHT22;10757;51.038;3.712;2023-03-01T17:38:05;6.90;99.90
21199;DHT22;10757;51.038;3.712;2023-03-01T17:40:31;6.80;99.90
21199;DHT22;10757;51.038;3.712;2023-03-01T17:42:57;6.70;99.90
21199;DHT22;10757;51.038;3.712;2023-03-01T17:45:25;6.60;99.90
21199;DHT22;10757;51.038;3.712;2023-03-01T17:47:51;6.50;99.90
21199;DHT22;10757;51.038;3.712;2023-03-01T17:50:17;6.40;99.90
21199;DHT22;10757;51.038;3.712;2023-03-01T17:52:43;6.40;99.90
21199;DHT22;10757;51.038;3.712;2023-03-01T17:55:09;6.40;99.90
21199;DHT22;10757;51.038;3.712;2023-03-01T17:57:38;6.40;99.90
21199;DHT22;10757;51.038;3.712;2023-03-01T18:00:05;6.50;99.90
21199;DHT22;10757;51.038;3.712;2023-03-01T18:02:31;6.30;99.90
21199;DHT22;10757;51.038;3.712;2023-03-01T18:04:58;6.30;99.90
21199;DHT22;10757;51.038;3.712;2023-03-01T18:07:27;6.30;99.90
21199;DHT22;10757;51.038;3.712;2023-03-01T18:09:52;6.20;99.90